Time;durP1;ratioP1;P1;durP2;ratioP2;P2;SDS_P1;SDS_P2;PMS_P1;PMS_P2;Temp;Humidity;BMP_temperature;BMP_pressure;BME280_temperature;BME280_humidity;BME280_pressure;Samples;Min_cycle;Max_cycle;Signal;HPM_P1;HPM_P2
2022/04/16 00:01:21;;;;;;;13.60;9.27;;;6.80;99.90;;;;;;5054710;28;20100;-57
2022/04/16 00:03:46;;;;;;;14.73;9.38;;;6.80;99.90;;;;;;5054580;28;20032;-57
2022/04/16 00:06:12;;;;;;;18.20;9.30;;;6.70;99.90;;;;;;5053415;28;20025;-61
2022/04/16 00:08:38;;;;;;;14.02;9.07;;;6.70;99.90;;;;;;5053525;28;20029;-56
2022/04/16 00:11:05;;;;;;;14.85;8.90;;;6.60;99.90;;;;;;5054520;28;20472;-59
2022/04/16 00:13:32;;;;;;;14.00;9.10;;;6.60;99.90;;;;;;5053468;28;20017;-59
2022/04/16 00:15:58;;;;;;;12.27;8.95;;;6.60;99.90;;;;;;5052695;28;20025;-58
2022/04/16 00:18:24;;;;;;;14.68;10.05;;;6.60;99.90;;;;;;5051788;28;20064;-58
2022/04/16 00:20:51;;;;;;;15.15;9.88;;;6.60;99.90;;;;;;5056612;28;20021;-60
2022/04/16 00:23:19;;;;;;;14.55;8.80;;;6.60;99.90;;;;;;5059710;28;20048;-60
2022/04/16 00:25:45;;;;;;;13.57;9.15;;;6.60;99.90;;;;;;5055060;28;20021;-57
2022/04/16 00:28:11;;;;;;;14.82;9.73;;;6.60;99.90;;;;;;5053213;28;20043;-59
2022/04/16 00:30:37;;;;;;;15.05;9.95;;;6.60;99.90;;;;;;5053978;28;20025;-57
2022/04/16 00:33:05;;;;;;;15.80;9.98;;;6.60;99.90;;;;;;5053607;28;20025;-64
2022/04/16 00:35:31;;;;;;;13.30;9.85;;;6.50;99.90;;;;;;5053798;28;20025;-56
2022/04/16 00:37:56;;;;;;;14.00;8.95;;;6.50;99.90;;;;;;5053576;28;20040;-58
2022/04/16 00:40:22;;;;;;;14.05;9.77;;;6.50;99.90;;;;;;5052636;28;20108;-58
2022/04/16 00:42:48;;;;;;;14.50;10.38;;;6.50;99.90;;;;;;5053507;28;20017;-57
2022/04/16 00:45:13;;;;;;;12.93;9.98;;;6.40;99.90;;;;;;5053651;28;20039;-58
2022/04/16 00:47:40;;;;;;;13.20;9.30;;;6.40;99.90;;;;;;5053127;28;20033;-59
2022/04/16 00:50:08;;;;;;;12.88;8.65;;;6.40;99.90;;;;;;5051892;28;20025;-58
2022/04/16 00:52:35;;;;;;;14.35;10.07;;;6.40;99.90;;;;;;5051551;28;20167;-58
2022/04/16 00:55:00;;;;;;;14.07;10.45;;;6.40;99.90;;;;;;5052745;28;20033;-58
2022/04/16 00:57:26;;;;;;;18.10;10.75;;;6.40;99.90;;;;;;5053043;28;20021;-58
2022/04/16 00:59:53;;;;;;;15.40;10.57;;;6.40;99.90;;;;;;5053312;28;20021;-58
2022/04/16 01:02:19;;;;;;;17.05;11.65;;;6.40;99.90;;;;;;5053408;28;20395;-58
2022/04/16 01:04:44;;;;;;;18.30;12.25;;;6.40;99.90;;;;;;5052760;28;20029;-57
2022/04/16 01:07:10;;;;;;;16.58;11.13;;;6.40;99.90;;;;;;5052598;28;20108;-57
2022/04/16 01:09:36;;;;;;;16.95;11.10;;;6.40;99.90;;;;;;5053541;28;20032;-57
2022/04/16 01:12:02;;;;;;;17.05;11.10;;;6.30;99.90;;;;;;5053440;28;20033;-59
2022/04/16 01:14:29;;;;;;;17.40;11.30;;;6.30;99.90;;;;;;5053080;28;20113;-56
2022/04/16 01:16:56;;;;;;;16.58;10.75;;;6.30;99.90;;;;;;5052908;28;20399;-58
2022/04/16 01:19:23;;;;;;;20.67;11.80;;;6.40;99.90;;;;;;5052904;28;20087;-56
2022/04/16 01:21:50;;;;;;;15.57;10.98;;;6.40;99.90;;;;;;5053110;28;20029;-57
2022/04/16 01:24:16;;;;;;;14.02;11.25;;;6.30;99.90;;;;;;5052260;28;20033;-57
2022/04/16 01:26:42;;;;;;;15.02;10.73;;;6.30;99.90;;;;;;5052449;28;20031;-57
2022/04/16 01:29:08;;;;;;;18.88;12.70;;;6.30;99.90;;;;;;5052393;28;20037;-58
2022/04/16 01:31:34;;;;;;;18.30;10.88;;;6.30;99.90;;;;;;5052526;28;20040;-58
2022/04/16 01:34:00;;;;;;;16.10;11.50;;;6.30;99.90;;;;;;5052296;28;20037;-56
2022/04/16 01:36:29;;;;;;;18.05;11.65;;;6.20;99.90;;;;;;5052220;28;20506;-57
2022/04/16 01:38:58;;;;;;;17.10;11.55;;;6.20;99.90;;;;;;5051871;28;20025;-56
2022/04/16 01:41:30;;;;;;;17.70;12.20;;;6.20;99.90;;;;;;5052411;28;20032;-58
2022/04/16 01:43:56;;;;;;;23.27;12.38;;;6.10;99.90;;;;;;5051802;28;20032;-57
2022/04/16 01:46:21;;;;;;;16.45;11.07;;;6.10;99.90;;;;;;5052220;28;20029;-59
2022/04/16 01:48:49;;;;;;;18.42;11.88;;;6.00;99.90;;;;;;5051361;28;20029;-59
2022/04/16 01:51:17;;;;;;;21.38;12.82;;;6.00;99.90;;;;;;5052445;28;20025;-57
2022/04/16 01:53:44;;;;;;;19.23;12.32;;;5.90;99.90;;;;;;5052579;28;20021;-57
2022/04/16 01:56:10;;;;;;;19.15;11.65;;;5.90;99.90;;;;;;5052049;28;20025;-58
2022/04/16 01:58:38;;;;;;;17.65;12.00;;;5.90;99.90;;;;;;5051543;28;20097;-58
2022/04/16 02:01:05;;;;;;;14.73;11.05;;;5.90;99.90;;;;;;5052618;28;20025;-57
2022/04/16 02:03:31;;;;;;;17.35;12.60;;;5.80;99.90;;;;;;5052122;28;20056;-60
2022/04/16 02:05:56;;;;;;;20.50;13.10;;;5.80;99.90;;;;;;5052197;28;20041;-55
2022/04/16 02:08:22;;;;;;;19.33;12.65;;;5.80;99.90;;;;;;5050437;28;20028;-56
2022/04/16 02:10:48;;;;;;;19.38;10.98;;;5.80;99.90;;;;;;5052166;28;20024;-55
2022/04/16 02:13:13;;;;;;;16.40;11.40;;;5.80;99.90;;;;;;5051792;28;20049;-57
2022/04/16 02:15:39;;;;;;;18.05;11.52;;;5.80;99.90;;;;;;5052083;28;20024;-56
2022/04/16 02:18:05;;;;;;;18.90;11.38;;;5.70;99.90;;;;;;5051843;28;20476;-58
2022/04/16 02:20:30;;;;;;;19.10;11.98;;;5.70;99.90;;;;;;5052012;28;20025;-57
2022/04/16 02:22:56;;;;;;;18.30;12.32;;;5.60;99.90;;;;;;5052284;28;20017;-58
2022/04/16 02:25:24;;;;;;;17.30;12.25;;;5.60;99.90;;;;;;5050528;28;20104;-60
2022/04/16 02:27:50;;;;;;;19.13;12.95;;;5.60;99.90;;;;;;5051056;28;20108;-59
2022/04/16 02:30:17;;;;;;;22.95;13.35;;;5.60;99.90;;;;;;5051776;28;20110;-57
2022/04/16 02:32:48;;;;;;;21.58;13.18;;;5.60;99.90;;;;;;5051837;28;20090;-58
2022/04/16 02:35:15;;;;;;;18.35;12.75;;;5.60;99.90;;;;;;5051823;28;20035;-57
2022/04/16 02:37:42;;;;;;;19.58;12.35;;;5.60;99.90;;;;;;5051605;28;20444;-58
2022/04/16 02:40:08;;;;;;;20.08;13.10;;;5.60;99.90;;;;;;5051692;28;20554;-57
2022/04/16 02:42:35;;;;;;;18.80;11.82;;;5.60;99.90;;;;;;5051199;28;20029;-57
2022/04/16 02:47:44;;;;;;;21.65;13.43;;;5.50;99.90;;;;;;5051319;28;20091;-59
2022/04/16 02:50:12;;;;;;;18.83;12.35;;;5.40;99.90;;;;;;5051156;28;20033;-58
2022/04/16 02:52:39;;;;;;;23.10;13.10;;;5.40;99.90;;;;;;5052013;28;20021;-57
2022/04/16 02:55:05;;;;;;;19.20;13.02;;;5.30;99.90;;;;;;5054447;28;20025;-60
2022/04/16 02:57:31;;;;;;;22.67;14.32;;;5.30;99.90;;;;;;5054524;28;20532;-59
2022/04/16 02:59:57;;;;;;;21.70;13.52;;;5.30;99.90;;;;;;5051579;28;20017;-60
2022/04/16 03:02:23;;;;;;;19.02;12.60;;;5.30;99.90;;;;;;5051637;28;20442;-58
2022/04/16 03:04:50;;;;;;;18.73;13.43;;;5.30;99.90;;;;;;5051404;28;20550;-57
2022/04/16 03:07:19;;;;;;;21.80;13.68;;;5.20;99.90;;;;;;5050946;28;20060;-60
2022/04/16 03:09:44;;;;;;;22.10;13.70;;;5.20;99.90;;;;;;5051632;28;20036;-58
2022/04/16 03:12:11;;;;;;;21.55;13.68;;;5.20;99.90;;;;;;5052459;28;20392;-60
2022/04/16 03:17:32;;;;;;;17.67;12.77;;;5.20;99.90;;;;;;5054829;28;20067;-58
2022/04/16 03:20:04;;;;;;;23.50;13.80;;;5.20;99.90;;;;;;5055088;28;20029;-60
2022/04/16 03:22:32;;;;;;;24.45;13.65;;;5.20;99.90;;;;;;5055127;28;20103;-58
2022/04/16 03:24:58;;;;;;;24.00;14.68;;;5.10;99.90;;;;;;5055188;28;20021;-56
2022/04/16 03:27:24;;;;;;;20.98;14.35;;;5.20;99.90;;;;;;5054688;28;20021;-58
2022/04/16 03:29:49;;;;;;;23.35;14.00;;;5.20;99.90;;;;;;5055066;28;20024;-58
2022/04/16 03:32:15;;;;;;;22.77;14.48;;;5.20;99.90;;;;;;5055432;28;20031;-59
2022/04/16 03:34:40;;;;;;;22.40;14.45;;;5.20;99.90;;;;;;5054816;28;20055;-59
2022/04/16 03:37:06;;;;;;;25.95;15.13;;;5.20;99.90;;;;;;5054456;28;20395;-56
2022/04/16 03:39:32;;;;;;;21.95;14.52;;;5.20;99.90;;;;;;5054933;28;20098;-60
2022/04/16 03:41:58;;;;;;;21.65;14.20;;;5.20;99.90;;;;;;5054552;28;20021;-59
2022/04/16 03:44:23;;;;;;;24.50;15.10;;;5.20;99.90;;;;;;5055081;28;20064;-58
2022/04/16 03:46:49;;;;;;;23.92;15.88;;;5.20;99.90;;;;;;5054394;28;20043;-58
2022/04/16 03:49:14;;;;;;;21.70;14.07;;;5.20;99.90;;;;;;5054062;28;20412;-59
2022/04/16 03:51:40;;;;;;;24.73;13.95;;;5.20;99.90;;;;;;5053584;28;20140;-58
2022/04/16 04:02:18;;;;;;;23.88;14.73;;;5.30;99.90;;;;;;5054283;28;20605;-57
2022/04/16 04:04:43;;;;;;;20.13;13.88;;;5.30;99.90;;;;;;5054839;28;20044;-63
2022/04/16 04:07:10;;;;;;;20.83;13.95;;;5.20;99.90;;;;;;5055027;28;20087;-57
2022/04/16 04:09:38;;;;;;;18.88;13.18;;;5.20;99.90;;;;;;5054153;28;20125;-58
2022/04/16 04:12:11;;;;;;;21.75;14.50;;;5.20;99.90;;;;;;5054242;28;20430;-58
2022/04/16 04:14:39;;;;;;;20.48;14.30;;;5.10;99.90;;;;;;5054239;28;20492;-60
2022/04/16 04:17:06;;;;;;;21.48;13.88;;;5.20;99.90;;;;;;5053577;28;20033;-58
2022/04/16 04:19:36;;;;;;;21.50;13.52;;;5.20;99.90;;;;;;5052904;28;20040;-58
2022/04/16 04:22:06;;;;;;;24.42;14.65;;;5.20;99.90;;;;;;5053631;28;20047;-58
2022/04/16 04:24:32;;;;;;;22.08;14.73;;;5.20;99.90;;;;;;5053484;28;20028;-59
2022/04/16 04:26:59;;;;;;;25.40;14.60;;;5.20;99.90;;;;;;5053325;28;20032;-60
2022/04/16 04:29:24;;;;;;;19.38;12.93;;;5.30;99.90;;;;;;5053924;28;20028;-58
2022/04/16 04:31:50;;;;;;;20.90;13.52;;;5.30;99.90;;;;;;5053264;28;20484;-59
2022/04/16 04:34:16;;;;;;;18.30;11.85;;;5.30;99.90;;;;;;5053484;28;20036;-58
2022/04/16 04:36:41;;;;;;;16.42;11.43;;;5.10;99.90;;;;;;5053073;28;20057;-59
2022/04/16 04:39:07;;;;;;;17.98;12.13;;;4.90;99.90;;;;;;5053465;28;20395;-59
2022/04/16 04:41:32;;;;;;;26.20;14.35;;;4.90;99.90;;;;;;5053837;28;20472;-61
2022/04/16 04:43:58;;;;;;;22.45;13.70;;;4.80;99.90;;;;;;5053298;28;20032;-58
2022/04/16 04:46:23;;;;;;;21.45;14.07;;;4.80;99.90;;;;;;5052854;28;20036;-60
2022/04/16 04:48:49;;;;;;;26.10;15.38;;;4.80;99.90;;;;;;5052483;28;20028;-57
2022/04/16 04:51:14;;;;;;;23.58;15.52;;;4.90;99.90;;;;;;5053179;28;20036;-59
2022/04/16 04:53:40;;;;;;;25.88;16.00;;;4.90;99.90;;;;;;5053131;28;20032;-59
2022/04/16 04:56:05;;;;;;;24.40;16.15;;;5.00;99.90;;;;;;5052905;28;20483;-58
2022/04/16 04:58:31;;;;;;;24.25;15.45;;;5.10;99.90;;;;;;5052434;28;20392;-59
2022/04/16 05:00:57;;;;;;;31.88;18.08;;;5.20;99.90;;;;;;5053045;28;20040;-58
2022/04/16 05:03:23;;;;;;;29.85;17.92;;;5.40;99.90;;;;;;5052670;28;20440;-58
2022/04/16 05:05:49;;;;;;;31.30;16.17;;;5.50;99.90;;;;;;5052220;28;20017;-58
2022/04/16 05:08:14;;;;;;;25.30;14.95;;;5.60;99.90;;;;;;5052425;28;20411;-58
2022/04/16 05:10:40;;;;;;;23.88;14.27;;;5.90;99.90;;;;;;5052732;28;20029;-58
2022/04/16 05:13:05;;;;;;;23.23;13.95;;;6.20;99.90;;;;;;5052756;28;20029;-58
2022/04/16 05:15:31;;;;;;;20.13;12.77;;;6.60;99.90;;;;;;5052585;28;20027;-56
2022/04/16 05:17:56;;;;;;;16.10;10.70;;;6.90;99.90;;;;;;5052124;28;20522;-60
2022/04/16 05:20:22;;;;;;;14.23;10.27;;;6.90;99.90;;;;;;5052302;28;20554;-59
2022/04/16 05:22:48;;;;;;;14.25;10.23;;;7.00;99.90;;;;;;5052600;28;20435;-58
2022/04/16 05:25:13;;;;;;;15.43;10.18;;;7.10;99.90;;;;;;5052397;28;20476;-57
2022/04/16 05:27:39;;;;;;;16.38;10.52;;;7.30;99.90;;;;;;5052206;28;20048;-60
2022/04/16 05:30:21;;;;;;;16.90;11.15;;;7.70;99.90;;;;;;5053395;28;20024;-59
2022/04/16 05:32:49;;;;;;;15.93;10.65;;;8.10;99.90;;;;;;5055428;28;20036;-60
2022/04/16 05:35:15;;;;;;;13.48;9.77;;;8.60;99.90;;;;;;5051573;28;20545;-58
2022/04/16 05:37:41;;;;;;;13.07;9.20;;;9.10;99.90;;;;;;5051827;28;20036;-58
2022/04/16 05:40:09;;;;;;;14.13;8.65;;;9.60;99.90;;;;;;5052369;28;20206;-59
2022/04/16 05:42:44;;;;;;;13.05;8.80;;;10.00;99.90;;;;;;5052100;28;20029;-59
2022/04/16 05:45:14;;;;;;;11.52;7.68;;;10.40;99.90;;;;;;5052157;28;20037;-59
2022/04/16 05:47:41;;;;;;;11.20;7.90;;;10.50;99.90;;;;;;5051613;28;20056;-59
2022/04/16 05:50:07;;;;;;;11.88;8.50;;;10.60;99.90;;;;;;5051627;28;20024;-58
2022/04/16 05:52:34;;;;;;;11.63;8.27;;;10.60;99.90;;;;;;5052015;28;20029;-58
2022/04/16 05:55:00;;;;;;;12.85;8.70;;;10.50;99.90;;;;;;5051884;28;20082;-58
2022/04/16 05:57:28;;;;;;;12.05;8.77;;;10.30;99.90;;;;;;5051428;28;20028;-56
2022/04/16 05:59:55;;;;;;;15.77;8.85;;;10.20;99.90;;;;;;5051823;28;20025;-57
2022/04/16 06:02:21;;;;;;;14.55;8.57;;;10.10;99.90;;;;;;5051574;28;20158;-59
2022/04/16 06:04:46;;;;;;;13.43;7.65;;;10.00;99.90;;;;;;5051813;28;20064;-59
2022/04/16 06:07:12;;;;;;;12.48;8.27;;;10.10;99.90;;;;;;5051376;28;20033;-58
2022/04/16 06:09:38;;;;;;;13.82;8.73;;;10.20;99.90;;;;;;5051403;28;20029;-59
2022/04/16 06:12:05;;;;;;;11.50;8.52;;;10.80;99.90;;;;;;5051708;28;20514;-60
2022/04/16 06:14:31;;;;;;;11.85;8.23;;;11.50;99.90;;;;;;5051667;28;20538;-59
2022/04/16 06:16:57;;;;;;;12.93;9.13;;;12.30;99.40;;;;;;5051182;28;20031;-58
2022/04/16 06:19:23;;;;;;;13.75;8.00;;;13.10;97.40;;;;;;5051626;28;20459;-60
2022/04/16 06:21:49;;;;;;;10.65;7.53;;;13.60;95.90;;;;;;5051637;28;20096;-59
2022/04/16 06:24:14;;;;;;;11.93;8.40;;;13.80;95.10;;;;;;5051307;28;20025;-58
2022/04/16 06:26:42;;;;;;;13.48;8.80;;;14.60;93.60;;;;;;5051499;28;20100;-58
2022/04/16 06:29:08;;;;;;;10.55;7.80;;;15.20;92.00;;;;;;5051151;28;20071;-60
2022/04/16 06:31:33;;;;;;;8.95;6.80;;;16.00;90.30;;;;;;5051870;28;20032;-59
2022/04/16 06:33:59;;;;;;;9.63;6.75;;;16.20;89.00;;;;;;5051538;28;20369;-61
2022/04/16 06:36:24;;;;;;;9.23;6.55;;;16.30;89.00;;;;;;5051184;28;20032;-60
2022/04/16 06:38:50;;;;;;;9.85;6.85;;;17.20;87.40;;;;;;5050791;28;20025;-60
2022/04/16 06:41:16;;;;;;;8.63;6.88;;;17.90;82.60;;;;;;5051400;28;20025;-61
2022/04/16 06:43:41;;;;;;;8.40;7.00;;;18.70;76.50;;;;;;5051381;28;20032;-61
2022/04/16 06:46:07;;;;;;;8.77;6.30;;;18.90;76.20;;;;;;5051094;28;20025;-60
2022/04/16 06:48:32;;;;;;;9.10;7.05;;;18.90;74.70;;;;;;5054818;28;20036;-60
2022/04/16 06:50:58;;;;;;;11.75;7.47;;;18.90;74.50;;;;;;5055416;28;20480;-60
2022/04/16 06:53:27;;;;;;;15.52;7.53;;;18.90;75.10;;;;;;5055471;28;20028;-62
2022/04/16 06:55:52;;;;;;;10.02;7.28;;;18.80;76.20;;;;;;5055306;28;20036;-60
2022/04/16 06:58:18;;;;;;;12.90;7.93;;;18.90;75.50;;;;;;5054976;28;20021;-61
2022/04/16 07:00:43;;;;;;;12.40;8.73;;;18.60;76.60;;;;;;5055086;28;20112;-61
2022/04/16 07:03:09;;;;;;;11.48;8.50;;;18.80;74.00;;;;;;5055156;28;20086;-58
2022/04/16 07:05:34;;;;;;;11.98;8.73;;;18.80;74.40;;;;;;5054873;28;20025;-61
2022/04/16 07:08:00;;;;;;;12.25;9.60;;;18.70;74.80;;;;;;5054950;28;20491;-61
2022/04/16 07:10:26;;;;;;;14.82;9.40;;;18.70;75.60;;;;;;5055096;28;20112;-60
2022/04/16 07:12:51;;;;;;;11.55;8.90;;;18.80;75.00;;;;;;5054989;28;20033;-61
2022/04/16 07:15:17;;;;;;;13.73;9.80;;;19.00;74.60;;;;;;5054897;28;20104;-61
2022/04/16 07:17:45;;;;;;;12.15;9.18;;;19.30;73.80;;;;;;5054447;28;20438;-61
2022/04/16 07:20:10;;;;;;;13.50;9.88;;;19.80;72.90;;;;;;5054651;28;20035;-61
2022/04/16 07:22:37;;;;;;;13.23;9.32;;;19.50;73.50;;;;;;5054785;28;20017;-61
2022/04/16 07:25:06;;;;;;;13.32;9.25;;;20.30;71.40;;;;;;5054789;28;20017;-60
2022/04/16 07:27:32;;;;;;;13.07;9.45;;;20.40;71.90;;;;;;5053851;28;20041;-61
2022/04/16 07:29:58;;;;;;;13.15;9.85;;;20.50;72.10;;;;;;5054524;28;20561;-61
2022/04/16 07:32:25;;;;;;;13.05;9.73;;;20.50;70.30;;;;;;5054535;28;20032;-62
2022/04/16 07:34:51;;;;;;;14.48;10.15;;;20.50;69.90;;;;;;5054588;28;20020;-62
2022/04/16 07:37:17;;;;;;;14.10;11.05;;;19.90;73.00;;;;;;5054143;28;20040;-61
2022/04/16 07:39:42;;;;;;;16.42;9.85;;;19.30;72.40;;;;;;5054781;28;20078;-60
2022/04/16 07:42:08;;;;;;;11.60;9.68;;;19.20;72.00;;;;;;5054290;28;20024;-59
2022/04/16 07:44:35;;;;;;;16.10;10.20;;;19.30;74.00;;;;;;5054390;28;20025;-58
2022/04/16 07:47:00;;;;;;;13.27;9.43;;;18.80;72.50;;;;;;5053865;28;20031;-59
2022/04/16 07:49:26;;;;;;;10.88;8.85;;;19.50;71.40;;;;;;5054218;28;20111;-58
2022/04/16 07:51:51;;;;;;;14.52;9.52;;;20.20;69.70;;;;;;5054247;28;20040;-58
2022/04/16 07:54:17;;;;;;;10.27;8.20;;;20.30;69.40;;;;;;5054247;28;20035;-59
2022/04/16 07:56:43;;;;;;;12.80;8.95;;;20.90;69.70;;;;;;5053635;28;20025;-59
2022/04/16 07:59:09;;;;;;;11.68;8.98;;;21.50;67.80;;;;;;5053429;28;20025;-58
2022/04/16 08:01:36;;;;;;;10.73;8.70;;;22.10;65.50;;;;;;5054523;28;20025;-59
2022/04/16 08:04:01;;;;;;;10.25;7.68;;;21.70;67.60;;;;;;5054111;28;20028;-59
2022/04/16 08:06:27;;;;;;;7.53;6.68;;;21.60;65.80;;;;;;5053619;28;20032;-59
2022/04/16 08:08:53;;;;;;;8.25;6.30;;;22.40;64.30;;;;;;5053821;28;20082;-59
2022/04/16 08:11:18;;;;;;;8.07;6.03;;;22.80;61.00;;;;;;5053987;28;20036;-59
2022/04/16 08:13:44;;;;;;;7.93;5.25;;;22.20;62.10;;;;;;5053437;28;20424;-59
2022/04/16 08:16:09;;;;;;;5.82;5.03;;;21.50;60.30;;;;;;5053912;28;20025;-59
2022/04/16 08:18:35;;;;;;;5.38;4.32;;;21.70;61.70;;;;;;5053465;28;20024;-59
2022/04/16 08:21:00;;;;;;;7.90;5.30;;;21.40;63.70;;;;;;5053875;28;20019;-59
2022/04/16 08:23:26;;;;;;;7.78;5.13;;;21.30;61.10;;;;;;5054063;28;20384;-60
2022/04/16 08:25:52;;;;;;;6.47;4.50;;;20.90;59.60;;;;;;5053636;28;20036;-59
2022/04/16 08:28:18;;;;;;;5.90;5.05;;;21.90;61.90;;;;;;5053020;28;20044;-59
2022/04/16 08:30:44;;;;;;;7.00;4.50;;;22.30;58.70;;;;;;5053501;28;20025;-58
2022/04/16 08:33:13;;;;;;;4.88;3.88;;;22.10;59.40;;;;;;5053526;28;20480;-60
2022/04/16 08:35:42;;;;;;;6.10;4.70;;;22.20;60.00;;;;;;5053488;28;20430;-61
2022/04/16 08:38:08;;;;;;;4.68;3.42;;;21.40;57.80;;;;;;5052781;28;20037;-58
2022/04/16 08:40:34;;;;;;;5.18;4.18;;;20.50;60.60;;;;;;5053313;28;20495;-57
2022/04/16 08:43:01;;;;;;;4.43;3.45;;;19.70;61.50;;;;;;5053787;28;20032;-60
2022/04/16 08:45:30;;;;;;;3.75;3.08;;;18.80;64.30;;;;;;5053230;28;20060;-58
2022/04/16 08:47:56;;;;;;;4.90;3.20;;;19.20;65.00;;;;;;5052930;28;20086;-58
2022/04/16 08:50:22;;;;;;;4.30;3.22;;;18.70;63.30;;;;;;5051633;28;20032;-60
2022/04/16 08:52:48;;;;;;;4.63;2.80;;;18.90;65.00;;;;;;5052641;28;20021;-60
2022/04/16 08:55:14;;;;;;;4.80;2.72;;;18.60;62.60;;;;;;5052903;28;20039;-56
2022/04/16 08:57:41;;;;;;;4.53;2.53;;;18.00;64.20;;;;;;5052757;28;20032;-58
2022/04/16 09:00:08;;;;;;;3.67;2.72;;;17.70;65.40;;;;;;5053050;28;20096;-59
2022/04/16 09:02:34;;;;;;;4.25;3.13;;;17.20;65.50;;;;;;5052934;28;20060;-58
2022/04/16 09:05:05;;;;;;;3.20;2.65;;;16.00;67.00;;;;;;5052655;28;20114;-58
2022/04/16 09:07:32;;;;;;;6.22;4.20;;;15.50;69.20;;;;;;5052061;28;20033;-58
2022/04/16 09:10:08;;;;;;;4.00;2.92;;;15.00;71.40;;;;;;5052079;28;20036;-60
2022/04/16 09:12:39;;;;;;;4.47;3.15;;;14.80;71.80;;;;;;5052709;28;20040;-58
2022/04/16 09:15:09;;;;;;;3.90;2.78;;;14.60;73.50;;;;;;5052706;28;20116;-60
2022/04/16 09:17:36;;;;;;;3.85;2.65;;;14.70;75.90;;;;;;5052243;28;20391;-58
2022/04/16 09:20:02;;;;;;;2.85;2.10;;;14.80;73.90;;;;;;5052966;28;20029;-58
2022/04/16 09:22:32;;;;;;;3.58;1.92;;;15.80;73.30;;;;;;5052150;28;20021;-59
2022/04/16 09:24:58;;;;;;;3.33;2.38;;;16.90;68.70;;;;;;5052197;28;20036;-60
2022/04/16 09:27:24;;;;;;;2.83;2.10;;;18.10;66.00;;;;;;5051429;28;20017;-60
2022/04/16 09:29:50;;;;;;;2.22;1.73;;;19.20;62.90;;;;;;5051611;28;20029;-61
2022/04/16 09:32:25;;;;;;;3.38;2.10;;;19.80;60.80;;;;;;5051630;28;20112;-61
2022/04/16 09:34:52;;;;;;;2.47;1.70;;;20.40;57.80;;;;;;5052055;28;20146;-60
2022/04/16 09:37:17;;;;;;;3.42;2.33;;;20.10;56.50;;;;;;5051826;28;20028;-61
2022/04/16 09:39:43;;;;;;;2.65;1.90;;;19.80;57.60;;;;;;5051857;28;20025;-59
2022/04/16 09:42:08;;;;;;;2.45;2.00;;;20.00;56.20;;;;;;5052256;28;20039;-60
2022/04/16 09:44:34;;;;;;;2.70;2.00;;;20.00;55.80;;;;;;5052048;28;20075;-59
2022/04/16 09:47:02;;;;;;;2.70;1.77;;;20.70;55.80;;;;;;5051312;28;20033;-60
2022/04/16 09:49:30;;;;;;;2.78;1.80;;;20.60;56.30;;;;;;5051754;28;20017;-61
2022/04/16 09:52:00;;;;;;;2.85;2.30;;;20.80;56.40;;;;;;5051967;28;20025;-57
2022/04/16 09:54:27;;;;;;;3.28;2.45;;;19.50;55.90;;;;;;5051922;28;20135;-60
2022/04/16 09:57:00;;;;;;;4.47;2.70;;;19.00;58.00;;;;;;5051351;28;20088;-60
2022/04/16 09:59:31;;;;;;;2.88;2.03;;;18.90;57.20;;;;;;5031950;28;20041;-59
2022/04/16 10:01:57;;;;;;;4.43;2.13;;;18.90;57.40;;;;;;5050104;28;20488;-60
2022/04/16 10:04:22;;;;;;;4.22;2.65;;;19.00;58.10;;;;;;5051291;28;20033;-59
2022/04/16 10:06:51;;;;;;;5.05;1.98;;;18.70;59.40;;;;;;5051114;28;20041;-55
2022/04/16 10:09:22;;;;;;;4.13;2.78;;;18.80;60.40;;;;;;5053010;28;20021;-57
2022/04/16 10:14:57;;;;;;;3.75;2.58;;;18.80;57.80;;;;;;5051915;28;20027;-59
2022/04/16 10:17:31;;;;;;;;;;;18.30;60.90;;;;;;5051791;28;20029;-59
2022/04/16 10:20:25;;;;;;;3.42;3.00;;;17.70;61.10;;;;;;5050970;28;19908;-59
2022/04/16 10:23:07;;;;;;;3.90;2.78;;;17.10;63.30;;;;;;5042385;28;20507;-58
2022/04/16 10:25:40;;;;;;;3.85;2.88;;;16.80;62.70;;;;;;5051772;28;20021;-58
2022/04/16 10:28:08;;;;;;;3.75;2.67;;;16.60;64.80;;;;;;5050199;28;20025;-58
2022/04/16 10:30:40;;;;;;;3.80;3.03;;;16.90;65.50;;;;;;5051511;28;20044;-58
2022/04/16 10:33:29;;;;;;;5.18;3.13;;;16.90;63.30;;;;;;5051758;28;20020;-59
2022/04/16 10:36:09;;;;;;;5.00;3.20;;;16.80;64.90;;;;;;5051659;28;20036;-58
2022/04/16 10:38:40;;;;;;;4.03;3.00;;;16.50;65.20;;;;;;5051394;28;20036;-59
2022/04/16 10:41:18;;;;;;;3.22;2.63;;;16.80;65.80;;;;;;5051697;28;20023;-56
2022/04/16 10:43:54;;;;;;;5.32;3.00;;;17.20;63.20;;;;;;5051446;28;20067;-58
2022/04/16 10:46:19;;;;;;;6.90;2.70;;;17.10;62.40;;;;;;5051253;28;20361;-57
2022/04/16 10:48:45;;;;;;;3.08;2.28;;;17.00;62.80;;;;;;5051154;28;20112;-58
2022/04/16 10:51:11;;;;;;;3.80;2.67;;;17.00;63.50;;;;;;5051435;28;20108;-58
2022/04/16 10:53:38;;;;;;;3.58;2.70;;;17.20;63.20;;;;;;5051401;28;20036;-59
2022/04/16 10:56:10;;;;;;;4.40;2.17;;;17.40;63.90;;;;;;5051301;28;20025;-58
2022/04/16 10:58:36;;;;;;;9.50;5.90;;;17.70;63.60;;;;;;5051205;28;20057;-58
2022/04/16 11:01:07;;;;;;;4.22;2.97;;;17.50;61.30;;;;;;5051058;28;20500;-57
2022/04/16 11:03:33;;;;;;;3.17;2.45;;;17.30;62.20;;;;;;5051349;28;20021;-60
2022/04/16 11:06:08;;;;;;;4.93;3.00;;;17.20;62.20;;;;;;5050748;28;20060;-60
2022/04/16 11:08:37;;;;;;;3.55;2.75;;;17.10;62.80;;;;;;5051087;28;20136;-60
2022/04/16 11:11:03;;;;;;;3.03;2.33;;;17.10;60.80;;;;;;5050981;28;20031;-60
2022/04/16 11:13:34;;;;;;;3.97;2.40;;;16.90;60.50;;;;;;5051301;28;20103;-58
2022/04/16 11:16:01;;;;;;;4.80;3.40;;;16.80;64.10;;;;;;5051046;28;20096;-58
2022/04/16 11:18:36;;;;;;;6.50;2.95;;;16.70;59.40;;;;;;5050811;28;20033;-58
2022/04/16 11:21:07;;;;;;;2.85;2.38;;;16.70;63.10;;;;;;5051523;28;20024;-58
2022/04/16 11:23:42;;;;;;;5.65;2.22;;;16.50;62.20;;;;;;5051213;28;20033;-59
2022/04/16 11:34:30;;;;;;;4.20;2.67;;;16.60;58.90;;;;;;5054220;28;20047;-59
2022/04/16 11:36:58;;;;;;;4.30;2.60;;;16.50;60.60;;;;;;5054369;28;20033;-58
2022/04/16 11:39:26;;;;;;;4.25;2.47;;;16.40;62.30;;;;;;5054573;28;20017;-59
2022/04/16 11:41:59;;;;;;;3.85;2.78;;;16.60;62.40;;;;;;5054312;28;20049;-60
2022/04/16 11:44:46;;;;;;;3.55;3.15;;;16.70;60.80;;;;;;5054116;28;20477;-58
2022/04/16 11:47:20;;;;;;;4.38;2.40;;;16.90;63.30;;;;;;5054035;28;20162;-59
2022/04/16 11:49:51;;;;;;;3.83;2.30;;;16.90;59.90;;;;;;5052598;28;20029;-59
2022/04/16 11:52:26;;;;;;;3.72;2.63;;;16.60;59.80;;;;;;5054243;28;20033;-56
2022/04/16 11:55:01;;;;;;;3.15;2.65;;;16.60;59.60;;;;;;5054236;28;20029;-58
2022/04/16 11:57:26;;;;;;;5.13;3.10;;;16.60;62.30;;;;;;5053865;28;20029;-58
2022/04/16 11:59:59;;;;;;;4.13;2.55;;;16.70;61.10;;;;;;5054018;28;20033;-60
2022/04/16 12:02:33;;;;;;;4.05;2.70;;;16.80;61.00;;;;;;5053743;28;20052;-59
2022/04/16 12:05:09;;;;;;;4.53;2.70;;;16.80;61.50;;;;;;5054084;28;20107;-60
2022/04/16 12:07:35;;;;;;;3.67;2.65;;;16.80;57.80;;;;;;5053307;28;20033;-60
2022/04/16 12:10:03;;;;;;;4.95;2.63;;;16.80;57.60;;;;;;5053726;28;20033;-59
2022/04/16 12:12:29;;;;;;;4.80;2.50;;;16.70;55.90;;;;;;5053743;28;20381;-57
2022/04/16 12:14:55;;;;;;;2.67;2.33;;;16.60;56.90;;;;;;5053786;28;20032;-58
2022/04/16 12:17:31;;;;;;;3.20;2.10;;;16.70;56.20;;;;;;5053348;28;20033;-57
2022/04/16 12:20:05;;;;;;;3.83;2.50;;;16.60;55.50;;;;;;5053685;28;20025;-58
2022/04/16 12:22:31;;;;;;;4.43;2.42;;;16.50;55.80;;;;;;5053592;28;20044;-58
2022/04/16 12:25:08;;;;;;;4.93;2.25;;;16.50;57.40;;;;;;5053531;28;20029;-58
2022/04/16 12:27:33;;;;;;;2.95;2.38;;;16.60;55.60;;;;;;5053208;28;20483;-57
2022/04/16 12:29:59;;;;;;;3.72;2.67;;;16.70;54.90;;;;;;5054034;28;20039;-55
2022/04/16 12:32:27;;;;;;;3.25;2.22;;;16.60;55.20;;;;;;5053649;28;20040;-58
2022/04/16 12:34:53;;;;;;;4.10;1.80;;;16.70;54.90;;;;;;5053451;28;20033;-58
2022/04/16 12:37:20;;;;;;;5.13;2.22;;;16.60;53.60;;;;;;5052957;28;20027;-56
2022/04/16 12:39:46;;;;;;;3.83;1.80;;;16.50;54.10;;;;;;5052966;28;20118;-59
2022/04/16 12:42:12;;;;;;;6.15;2.88;;;16.60;54.80;;;;;;5053014;28;20017;-59
2022/04/16 12:44:37;;;;;;;3.15;1.70;;;16.60;55.20;;;;;;5052006;28;20021;-58
2022/04/16 12:47:03;;;;;;;3.13;1.88;;;16.60;54.00;;;;;;5052731;28;20025;-57
2022/04/16 12:49:29;;;;;;;3.20;1.95;;;16.60;53.20;;;;;;5056268;28;20549;-59
2022/04/16 12:51:54;;;;;;;2.00;1.55;;;16.50;52.70;;;;;;5062557;28;20025;-60
2022/04/16 12:54:20;;;;;;;5.38;1.60;;;16.60;51.20;;;;;;5054621;28;20033;-58
2022/04/16 12:56:47;;;;;;;2.67;1.40;;;16.50;50.90;;;;;;5052372;28;20108;-58
2022/04/16 12:59:13;;;;;;;3.50;1.98;;;16.50;50.10;;;;;;5051521;28;20029;-55
2022/04/16 13:01:38;;;;;;;5.70;1.30;;;16.50;47.50;;;;;;5052888;28;20512;-57
2022/04/16 13:04:04;;;;;;;2.45;1.70;;;16.40;48.40;;;;;;5052931;28;20074;-58
2022/04/16 13:06:30;;;;;;;3.25;1.60;;;16.50;49.90;;;;;;5052062;28;20114;-57